sensor_id;sensor_type;location;lat;lon;timestamp;P1;P2;P0
64627;PMS5003;59036;50.960;0.314;2022-08-02T00:00:21;10;10;
64627;PMS5003;59036;50.960;0.314;2022-08-02T00:02:48;9;9;
64627;PMS5003;59036;50.960;0.314;2022-08-02T00:05:16;7;7;
64627;PMS5003;59036;50.960;0.314;2022-08-02T00:07:43;9;7;
64627;PMS5003;59036;50.960;0.314;2022-08-02T00:10:11;7;7;
64627;PMS5003;59036;50.960;0.314;2022-08-02T00:12:38;7;7;
64627;PMS5003;59036;50.960;0.314;2022-08-02T00:15:06;9;9;
64627;PMS5003;59036;50.960;0.314;2022-08-02T00:17:35;7;6;
64627;PMS5003;59036;50.960;0.314;2022-08-02T00:20:03;7;7;
64627;PMS5003;59036;50.960;0.314;2022-08-02T00:22:31;7;7;
64627;PMS5003;59036;50.960;0.314;2022-08-02T00:24:58;8;7;
64627;PMS5003;59036;50.960;0.314;2022-08-02T00:27:26;6;6;
64627;PMS5003;59036;50.960;0.314;2022-08-02T00:29:53;8;7;
64627;PMS5003;59036;50.960;0.314;2022-08-02T00:32:21;8;8;
64627;PMS5003;59036;50.960;0.314;2022-08-02T00:34:49;6;6;
64627;PMS5003;59036;50.960;0.314;2022-08-02T00:37:17;5;5;
64627;PMS5003;59036;50.960;0.314;2022-08-02T00:39:44;7;7;
64627;PMS5003;59036;50.960;0.314;2022-08-02T00:42:12;9;8;
64627;PMS5003;59036;50.960;0.314;2022-08-02T00:44:40;6;5;
64627;PMS5003;59036;50.960;0.314;2022-08-02T00:47:08;7;7;
64627;PMS5003;59036;50.960;0.314;2022-08-02T00:49:36;6;6;
64627;PMS5003;59036;50.960;0.314;2022-08-02T00:52:04;6;6;
64627;PMS5003;59036;50.960;0.314;2022-08-02T00:54:32;7;7;
64627;PMS5003;59036;50.960;0.314;2022-08-02T00:56:59;6;6;
64627;PMS5003;59036;50.960;0.314;2022-08-02T00:59:26;6;6;
64627;PMS5003;59036;50.960;0.314;2022-08-02T01:01:53;6;6;
64627;PMS5003;59036;50.960;0.314;2022-08-02T01:04:21;7;7;
64627;PMS5003;59036;50.960;0.314;2022-08-02T01:06:49;6;6;
64627;PMS5003;59036;50.960;0.314;2022-08-02T01:09:22;6;6;
64627;PMS5003;59036;50.960;0.314;2022-08-02T01:11:49;8;7;
64627;PMS5003;59036;50.960;0.314;2022-08-02T01:14:17;8;7;
64627;PMS5003;59036;50.960;0.314;2022-08-02T01:16:45;8;7;
64627;PMS5003;59036;50.960;0.314;2022-08-02T01:19:25;7;7;
64627;PMS5003;59036;50.960;0.314;2022-08-02T01:22:07;7;6;
64627;PMS5003;59036;50.960;0.314;2022-08-02T01:24:54;9;7;
64627;PMS5003;59036;50.960;0.314;2022-08-02T01:27:34;6;4;
64627;PMS5003;59036;50.960;0.314;2022-08-02T01:30:08;10;9;
64627;PMS5003;59036;50.960;0.314;2022-08-02T01:32:40;7;5;
64627;PMS5003;59036;50.960;0.314;2022-08-02T01:35:10;6;6;
64627;PMS5003;59036;50.960;0.314;2022-08-02T01:37:44;6;6;
64627;PMS5003;59036;50.960;0.314;2022-08-02T01:40:16;7;7;
64627;PMS5003;59036;50.960;0.314;2022-08-02T01:42:50;7;6;
64627;PMS5003;59036;50.960;0.314;2022-08-02T01:45:20;8;8;
64627;PMS5003;59036;50.960;0.314;2022-08-02T01:47:51;6;6;
64627;PMS5003;59036;50.960;0.314;2022-08-02T01:50:20;6;6;
64627;PMS5003;59036;50.960;0.314;2022-08-02T01:52:52;7;7;
64627;PMS5003;59036;50.960;0.314;2022-08-02T01:55:24;8;7;
64627;PMS5003;59036;50.960;0.314;2022-08-02T01:57:57;7;7;
64627;PMS5003;59036;50.960;0.314;2022-08-02T02:00:27;7;7;
64627;PMS5003;59036;50.960;0.314;2022-08-02T02:02:57;10;8;
64627;PMS5003;59036;50.960;0.314;2022-08-02T02:05:27;8;8;
64627;PMS5003;59036;50.960;0.314;2022-08-02T02:07:56;10;10;
64627;PMS5003;59036;50.960;0.314;2022-08-02T02:10:26;8;7;
64627;PMS5003;59036;50.960;0.314;2022-08-02T02:13:02;11;10;
64627;PMS5003;59036;50.960;0.314;2022-08-02T02:15:31;10;9;
64627;PMS5003;59036;50.960;0.314;2022-08-02T02:18:00;8;8;
64627;PMS5003;59036;50.960;0.314;2022-08-02T02:20:29;7;6;
64627;PMS5003;59036;50.960;0.314;2022-08-02T02:22:57;7;7;
64627;PMS5003;59036;50.960;0.314;2022-08-02T02:25:25;10;10;
64627;PMS5003;59036;50.960;0.314;2022-08-02T02:27:54;8;8;
64627;PMS5003;59036;50.960;0.314;2022-08-02T02:30:26;9;8;
64627;PMS5003;59036;50.960;0.314;2022-08-02T02:32:57;8;7;
64627;PMS5003;59036;50.960;0.314;2022-08-02T02:35:28;10;8;
64627;PMS5003;59036;50.960;0.314;2022-08-02T02:37:58;11;10;
64627;PMS5003;59036;50.960;0.314;2022-08-02T02:40:28;10;10;
64627;PMS5003;59036;50.960;0.314;2022-08-02T02:42:57;8;8;
64627;PMS5003;59036;50.960;0.314;2022-08-02T02:45:26;8;7;
64627;PMS5003;59036;50.960;0.314;2022-08-02T02:47:55;9;9;
64627;PMS5003;59036;50.960;0.314;2022-08-02T02:50:24;11;11;
64627;PMS5003;59036;50.960;0.314;2022-08-02T02:52:52;9;9;
64627;PMS5003;59036;50.960;0.314;2022-08-02T02:55:20;11;10;
64627;PMS5003;59036;50.960;0.314;2022-08-02T02:57:48;9;8;
64627;PMS5003;59036;50.960;0.314;2022-08-02T03:00:16;10;8;
64627;PMS5003;59036;50.960;0.314;2022-08-02T03:02:44;11;10;
64627;PMS5003;59036;50.960;0.314;2022-08-02T03:05:12;10;10;
64627;PMS5003;59036;50.960;0.314;2022-08-02T03:07:41;11;11;
64627;PMS5003;59036;50.960;0.314;2022-08-02T03:10:09;10;9;
64627;PMS5003;59036;50.960;0.314;2022-08-02T03:12:37;9;8;
64627;PMS5003;59036;50.960;0.314;2022-08-02T03:15:05;10;9;
64627;PMS5003;59036;50.960;0.314;2022-08-02T03:17:36;11;11;
64627;PMS5003;59036;50.960;0.314;2022-08-02T03:20:07;11;11;
64627;PMS5003;59036;50.960;0.314;2022-08-02T03:22:36;12;11;
64627;PMS5003;59036;50.960;0.314;2022-08-02T03:25:03;10;10;
64627;PMS5003;59036;50.960;0.314;2022-08-02T03:27:31;11;11;
64627;PMS5003;59036;50.960;0.314;2022-08-02T03:29:58;11;11;
64627;PMS5003;59036;50.960;0.314;2022-08-02T03:32:26;10;10;
64627;PMS5003;59036;50.960;0.314;2022-08-02T03:34:53;11;9;
64627;PMS5003;59036;50.960;0.314;2022-08-02T03:37:21;10;10;
64627;PMS5003;59036;50.960;0.314;2022-08-02T03:39:50;13;11;
64627;PMS5003;59036;50.960;0.314;2022-08-02T03:42:19;10;9;
64627;PMS5003;59036;50.960;0.314;2022-08-02T03:44:47;9;9;
64627;PMS5003;59036;50.960;0.314;2022-08-02T03:47:15;13;13;
64627;PMS5003;59036;50.960;0.314;2022-08-02T03:49:44;11;9;
64627;PMS5003;59036;50.960;0.314;2022-08-02T03:52:11;11;11;
64627;PMS5003;59036;50.960;0.314;2022-08-02T03:54:40;12;12;
64627;PMS5003;59036;50.960;0.314;2022-08-02T03:57:07;12;12;
64627;PMS5003;59036;50.960;0.314;2022-08-02T03:59:39;15;14;
64627;PMS5003;59036;50.960;0.314;2022-08-02T04:02:07;10;10;
64627;PMS5003;59036;50.960;0.314;2022-08-02T04:04:34;13;13;
64627;PMS5003;59036;50.960;0.314;2022-08-02T04:07:01;11;11;
64627;PMS5003;59036;50.960;0.314;2022-08-02T04:09:29;11;11;
64627;PMS5003;59036;50.960;0.314;2022-08-02T04:11:56;11;11;
64627;PMS5003;59036;50.960;0.314;2022-08-02T04:14:23;13;13;
64627;PMS5003;59036;50.960;0.314;2022-08-02T04:16:53;9;9;
64627;PMS5003;59036;50.960;0.314;2022-08-02T04:19:26;13;12;
64627;PMS5003;59036;50.960;0.314;2022-08-02T04:21:57;11;11;
64627;PMS5003;59036;50.960;0.314;2022-08-02T04:24:27;10;10;
64627;PMS5003;59036;50.960;0.314;2022-08-02T04:26:57;10;10;
64627;PMS5003;59036;50.960;0.314;2022-08-02T04:29:26;12;11;
64627;PMS5003;59036;50.960;0.314;2022-08-02T04:31:54;8;8;
64627;PMS5003;59036;50.960;0.314;2022-08-02T04:34:22;13;12;
64627;PMS5003;59036;50.960;0.314;2022-08-02T04:36:49;11;10;
64627;PMS5003;59036;50.960;0.314;2022-08-02T04:39:17;9;9;
64627;PMS5003;59036;50.960;0.314;2022-08-02T04:41:44;10;10;
64627;PMS5003;59036;50.960;0.314;2022-08-02T04:44:11;8;8;
64627;PMS5003;59036;50.960;0.314;2022-08-02T04:46:39;9;9;
64627;PMS5003;59036;50.960;0.314;2022-08-02T04:49:08;9;8;
64627;PMS5003;59036;50.960;0.314;2022-08-02T04:51:36;8;8;
64627;PMS5003;59036;50.960;0.314;2022-08-02T04:54:05;9;9;
64627;PMS5003;59036;50.960;0.314;2022-08-02T04:56:33;11;10;
64627;PMS5003;59036;50.960;0.314;2022-08-02T04:59:01;9;9;
64627;PMS5003;59036;50.960;0.314;2022-08-02T05:01:29;8;8;
64627;PMS5003;59036;50.960;0.314;2022-08-02T05:03:56;10;10;
64627;PMS5003;59036;50.960;0.314;2022-08-02T05:06:23;9;8;
64627;PMS5003;59036;50.960;0.314;2022-08-02T05:08:50;10;8;
64627;PMS5003;59036;50.960;0.314;2022-08-02T05:11:18;11;10;
64627;PMS5003;59036;50.960;0.314;2022-08-02T05:13:45;8;8;
64627;PMS5003;59036;50.960;0.314;2022-08-02T05:16:13;9;9;
64627;PMS5003;59036;50.960;0.314;2022-08-02T05:18:42;13;11;
64627;PMS5003;59036;50.960;0.314;2022-08-02T05:21:09;8;8;
64627;PMS5003;59036;50.960;0.314;2022-08-02T05:23:37;11;11;
64627;PMS5003;59036;50.960;0.314;2022-08-02T05:26:04;9;8;
64627;PMS5003;59036;50.960;0.314;2022-08-02T05:28:31;10;10;
64627;PMS5003;59036;50.960;0.314;2022-08-02T05:30:58;10;9;
64627;PMS5003;59036;50.960;0.314;2022-08-02T05:33:26;8;8;
64627;PMS5003;59036;50.960;0.314;2022-08-02T05:35:54;6;6;
64627;PMS5003;59036;50.960;0.314;2022-08-02T05:38:21;5;4;
64627;PMS5003;59036;50.960;0.314;2022-08-02T05:40:49;5;5;
64627;PMS5003;59036;50.960;0.314;2022-08-02T05:43:17;4;4;
64627;PMS5003;59036;50.960;0.314;2022-08-02T05:45:45;5;5;
64627;PMS5003;59036;50.960;0.314;2022-08-02T05:48:12;7;6;
64627;PMS5003;59036;50.960;0.314;2022-08-02T05:50:39;6;6;
64627;PMS5003;59036;50.960;0.314;2022-08-02T05:53:16;5;5;
64627;PMS5003;59036;50.960;0.314;2022-08-02T05:55:50;6;6;
64627;PMS5003;59036;50.960;0.314;2022-08-02T05:58:30;7;5;
64627;PMS5003;59036;50.960;0.314;2022-08-02T06:01:05;5;4;
64627;PMS5003;59036;50.960;0.314;2022-08-02T06:03:41;5;4;
64627;PMS5003;59036;50.960;0.314;2022-08-02T06:06:16;10;9;
64627;PMS5003;59036;50.960;0.314;2022-08-02T06:08:49;5;4;
64627;PMS5003;59036;50.960;0.314;2022-08-02T06:11:21;5;5;
64627;PMS5003;59036;50.960;0.314;2022-08-02T06:13:50;6;4;
64627;PMS5003;59036;50.960;0.314;2022-08-02T06:16:18;6;6;
64627;PMS5003;59036;50.960;0.314;2022-08-02T06:18:45;6;6;
64627;PMS5003;59036;50.960;0.314;2022-08-02T06:21:14;6;5;
64627;PMS5003;59036;50.960;0.314;2022-08-02T06:23:43;8;7;
64627;PMS5003;59036;50.960;0.314;2022-08-02T06:26:12;4;4;
64627;PMS5003;59036;50.960;0.314;2022-08-02T06:28:40;4;4;
64627;PMS5003;59036;50.960;0.314;2022-08-02T06:31:08;4;4;
64627;PMS5003;59036;50.960;0.314;2022-08-02T06:33:38;8;8;
64627;PMS5003;59036;50.960;0.314;2022-08-02T06:36:06;5;5;
64627;PMS5003;59036;50.960;0.314;2022-08-02T06:38:39;8;8;
64627;PMS5003;59036;50.960;0.314;2022-08-02T06:41:08;3;3;
64627;PMS5003;59036;50.960;0.314;2022-08-02T06:43:41;5;5;
64627;PMS5003;59036;50.960;0.314;2022-08-02T06:46:12;8;7;
64627;PMS5003;59036;50.960;0.314;2022-08-02T06:48:39;4;4;
64627;PMS5003;59036;50.960;0.314;2022-08-02T06:51:07;6;5;
64627;PMS5003;59036;50.960;0.314;2022-08-02T06:53:40;5;4;
64627;PMS5003;59036;50.960;0.314;2022-08-02T06:56:07;5;4;
64627;PMS5003;59036;50.960;0.314;2022-08-02T06:58:34;3;3;
64627;PMS5003;59036;50.960;0.314;2022-08-02T07:01:02;6;6;
64627;PMS5003;59036;50.960;0.314;2022-08-02T07:03:29;5;5;
64627;PMS5003;59036;50.960;0.314;2022-08-02T07:05:56;6;6;
64627;PMS5003;59036;50.960;0.314;2022-08-02T07:08:23;4;4;
64627;PMS5003;59036;50.960;0.314;2022-08-02T07:10:50;5;4;
64627;PMS5003;59036;50.960;0.314;2022-08-02T07:13:18;6;6;
64627;PMS5003;59036;50.960;0.314;2022-08-02T07:15:45;4;4;
64627;PMS5003;59036;50.960;0.314;2022-08-02T07:18:17;6;6;
64627;PMS5003;59036;50.960;0.314;2022-08-02T07:20:50;5;5;
64627;PMS5003;59036;50.960;0.314;2022-08-02T07:23:27;6;5;
64627;PMS5003;59036;50.960;0.314;2022-08-02T07:26:00;5;4;
64627;PMS5003;59036;50.960;0.314;2022-08-02T07:28:27;3;3;
64627;PMS5003;59036;50.960;0.314;2022-08-02T07:30:53;4;3;
64627;PMS5003;59036;50.960;0.314;2022-08-02T07:33:20;6;4;
64627;PMS5003;59036;50.960;0.314;2022-08-02T07:35:47;4;4;
64627;PMS5003;59036;50.960;0.314;2022-08-02T07:38:14;5;4;
64627;PMS5003;59036;50.960;0.314;2022-08-02T07:40:41;5;5;
64627;PMS5003;59036;50.960;0.314;2022-08-02T07:43:08;3;3;
64627;PMS5003;59036;50.960;0.314;2022-08-02T07:45:35;5;5;
64627;PMS5003;59036;50.960;0.314;2022-08-02T07:48:02;2;2;
64627;PMS5003;59036;50.960;0.314;2022-08-02T07:50:30;2;2;
64627;PMS5003;59036;50.960;0.314;2022-08-02T07:52:57;3;3;
64627;PMS5003;59036;50.960;0.314;2022-08-02T07:55:24;3;3;
64627;PMS5003;59036;50.960;0.314;2022-08-02T07:57:51;2;2;
64627;PMS5003;59036;50.960;0.314;2022-08-02T08:00:19;3;3;
64627;PMS5003;59036;50.960;0.314;2022-08-02T08:02:46;1;1;
64627;PMS5003;59036;50.960;0.314;2022-08-02T08:05:13;3;3;
64627;PMS5003;59036;50.960;0.314;2022-08-02T08:07:40;2;2;
64627;PMS5003;59036;50.960;0.314;2022-08-02T08:10:08;2;1;
64627;PMS5003;59036;50.960;0.314;2022-08-02T08:12:36;3;3;
64627;PMS5003;59036;50.960;0.314;2022-08-02T08:15:04;5;5;
64627;PMS5003;59036;50.960;0.314;2022-08-02T08:17:31;3;3;
64627;PMS5003;59036;50.960;0.314;2022-08-02T08:19:58;2;2;
64627;PMS5003;59036;50.960;0.314;2022-08-02T08:22:27;3;3;
64627;PMS5003;59036;50.960;0.314;2022-08-02T08:24:53;2;2;
64627;PMS5003;59036;50.960;0.314;2022-08-02T08:27:21;4;4;
64627;PMS5003;59036;50.960;0.314;2022-08-02T08:29:48;3;2;
64627;PMS5003;59036;50.960;0.314;2022-08-02T08:32:15;1;1;
64627;PMS5003;59036;50.960;0.314;2022-08-02T08:34:48;3;2;
64627;PMS5003;59036;50.960;0.314;2022-08-02T08:37:15;3;3;
64627;PMS5003;59036;50.960;0.314;2022-08-02T08:39:42;3;2;
64627;PMS5003;59036;50.960;0.314;2022-08-02T08:42:09;1;1;
64627;PMS5003;59036;50.960;0.314;2022-08-02T08:44:37;1;1;
64627;PMS5003;59036;50.960;0.314;2022-08-02T08:47:04;4;3;
64627;PMS5003;59036;50.960;0.314;2022-08-02T08:49:32;1;1;
64627;PMS5003;59036;50.960;0.314;2022-08-02T08:52:06;2;2;
64627;PMS5003;59036;50.960;0.314;2022-08-02T08:54:37;2;2;
64627;PMS5003;59036;50.960;0.314;2022-08-02T08:57:07;2;2;
64627;PMS5003;59036;50.960;0.314;2022-08-02T08:59:35;2;2;
64627;PMS5003;59036;50.960;0.314;2022-08-02T09:02:02;2;2;
64627;PMS5003;59036;50.960;0.314;2022-08-02T09:04:30;3;2;
64627;PMS5003;59036;50.960;0.314;2022-08-02T09:06:57;2;1;
64627;PMS5003;59036;50.960;0.314;2022-08-02T09:09:24;1;1;
64627;PMS5003;59036;50.960;0.314;2022-08-02T09:11:51;1;1;
64627;PMS5003;59036;50.960;0.314;2022-08-02T09:14:26;1;1;
64627;PMS5003;59036;50.960;0.314;2022-08-02T09:17:04;1;1;
64627;PMS5003;59036;50.960;0.314;2022-08-02T09:19:37;0;0;
64627;PMS5003;59036;50.960;0.314;2022-08-02T09:22:15;2;2;
64627;PMS5003;59036;50.960;0.314;2022-08-02T09:24:45;1;1;
64627;PMS5003;59036;50.960;0.314;2022-08-02T09:27:14;1;1;
64627;PMS5003;59036;50.960;0.314;2022-08-02T09:29:44;1;1;
64627;PMS5003;59036;50.960;0.314;2022-08-02T09:32:12;2;2;
64627;PMS5003;59036;50.960;0.314;2022-08-02T09:34:44;1;1;
64627;PMS5003;59036;50.960;0.314;2022-08-02T09:37:20;1;0;
64627;PMS5003;59036;50.960;0.314;2022-08-02T09:39:48;0;0;
64627;PMS5003;59036;50.960;0.314;2022-08-02T09:42:15;0;0;
64627;PMS5003;59036;50.960;0.314;2022-08-02T09:44:55;1;1;
64627;PMS5003;59036;50.960;0.314;2022-08-02T09:47:23;0;0;
64627;PMS5003;59036;50.960;0.314;2022-08-02T09:49:52;0;0;
64627;PMS5003;59036;50.960;0.314;2022-08-02T09:52:21;3;2;
64627;PMS5003;59036;50.960;0.314;2022-08-02T09:54:51;0;0;
64627;PMS5003;59036;50.960;0.314;2022-08-02T09:57:24;1;1;
64627;PMS5003;59036;50.960;0.314;2022-08-02T09:59:54;2;2;
64627;PMS5003;59036;50.960;0.314;2022-08-02T10:02:22;1;1;
64627;PMS5003;59036;50.960;0.314;2022-08-02T10:04:49;1;1;
64627;PMS5003;59036;50.960;0.314;2022-08-02T10:07:18;2;2;
64627;PMS5003;59036;50.960;0.314;2022-08-02T10:09:46;2;1;
64627;PMS5003;59036;50.960;0.314;2022-08-02T10:12:14;1;1;
64627;PMS5003;59036;50.960;0.314;2022-08-02T10:14:41;1;1;
64627;PMS5003;59036;50.960;0.314;2022-08-02T10:17:08;1;1;
64627;PMS5003;59036;50.960;0.314;2022-08-02T10:19:36;0;0;
64627;PMS5003;59036;50.960;0.314;2022-08-02T10:22:04;0;0;
64627;PMS5003;59036;50.960;0.314;2022-08-02T10:24:36;0;0;
64627;PMS5003;59036;50.960;0.314;2022-08-02T10:27:04;1;1;
64627;PMS5003;59036;50.960;0.314;2022-08-02T10:29:33;1;0;
64627;PMS5003;59036;50.960;0.314;2022-08-02T10:32:02;2;2;
64627;PMS5003;59036;50.960;0.314;2022-08-02T10:34:35;1;1;
64627;PMS5003;59036;50.960;0.314;2022-08-02T10:37:06;2;2;
64627;PMS5003;59036;50.960;0.314;2022-08-02T10:39:38;2;1;
64627;PMS5003;59036;50.960;0.314;2022-08-02T10:42:06;2;2;
64627;PMS5003;59036;50.960;0.314;2022-08-02T10:44:35;2;1;
64627;PMS5003;59036;50.960;0.314;2022-08-02T10:47:20;2;2;
64627;PMS5003;59036;50.960;0.314;2022-08-02T10:49:51;2;1;
64627;PMS5003;59036;50.960;0.314;2022-08-02T10:52:20;2;2;
64627;PMS5003;59036;50.960;0.314;2022-08-02T10:54:48;5;4;
64627;PMS5003;59036;50.960;0.314;2022-08-02T10:57:21;4;4;
64627;PMS5003;59036;50.960;0.314;2022-08-02T10:59:51;2;2;
64627;PMS5003;59036;50.960;0.314;2022-08-02T11:02:37;3;3;
64627;PMS5003;59036;50.960;0.314;2022-08-02T11:05:08;3;3;
64627;PMS5003;59036;50.960;0.314;2022-08-02T11:07:38;4;2;
64627;PMS5003;59036;50.960;0.314;2022-08-02T11:10:38;2;2;
64627;PMS5003;59036;50.960;0.314;2022-08-02T11:13:07;3;3;
64627;PMS5003;59036;50.960;0.314;2022-08-02T11:15:54;5;5;
64627;PMS5003;59036;50.960;0.314;2022-08-02T11:21:29;6;6;
64627;PMS5003;59036;50.960;0.314;2022-08-02T11:24:22;5;5;
64627;PMS5003;59036;50.960;0.314;2022-08-02T11:26:52;8;7;
64627;PMS5003;59036;50.960;0.314;2022-08-02T11:29:20;8;8;
64627;PMS5003;59036;50.960;0.314;2022-08-02T11:31:48;6;6;
64627;PMS5003;59036;50.960;0.314;2022-08-02T11:34:15;8;8;
64627;PMS5003;59036;50.960;0.314;2022-08-02T11:36:43;3;3;
64627;PMS5003;59036;50.960;0.314;2022-08-02T11:39:12;4;4;
64627;PMS5003;59036;50.960;0.314;2022-08-02T11:41:40;4;3;
64627;PMS5003;59036;50.960;0.314;2022-08-02T11:44:08;6;5;
64627;PMS5003;59036;50.960;0.314;2022-08-02T11:46:36;6;5;
64627;PMS5003;59036;50.960;0.314;2022-08-02T11:49:10;3;3;
64627;PMS5003;59036;50.960;0.314;2022-08-02T11:51:39;6;6;
64627;PMS5003;59036;50.960;0.314;2022-08-02T11:54:21;5;4;
64627;PMS5003;59036;50.960;0.314;2022-08-02T11:56:50;7;7;
64627;PMS5003;59036;50.960;0.314;2022-08-02T11:59:17;5;5;
64627;PMS5003;59036;50.960;0.314;2022-08-02T12:01:44;10;9;
64627;PMS5003;59036;50.960;0.314;2022-08-02T12:04:15;8;8;
64627;PMS5003;59036;50.960;0.314;2022-08-02T12:06:43;8;7;
64627;PMS5003;59036;50.960;0.314;2022-08-02T12:09:20;12;11;
64627;PMS5003;59036;50.960;0.314;2022-08-02T12:11:47;12;11;
64627;PMS5003;59036;50.960;0.314;2022-08-02T12:14:15;11;11;
64627;PMS5003;59036;50.960;0.314;2022-08-02T12:16:42;9;9;
64627;PMS5003;59036;50.960;0.314;2022-08-02T12:19:09;10;10;
64627;PMS5003;59036;50.960;0.314;2022-08-02T12:21:40;13;11;
64627;PMS5003;59036;50.960;0.314;2022-08-02T12:24:07;12;12;
64627;PMS5003;59036;50.960;0.314;2022-08-02T12:26:40;14;13;
64627;PMS5003;59036;50.960;0.314;2022-08-02T12:29:08;15;13;
64627;PMS5003;59036;50.960;0.314;2022-08-02T12:31:40;12;12;
64627;PMS5003;59036;50.960;0.314;2022-08-02T12:34:12;14;13;
64627;PMS5003;59036;50.960;0.314;2022-08-02T12:36:40;10;10;
64627;PMS5003;59036;50.960;0.314;2022-08-02T12:39:10;10;9;
64627;PMS5003;59036;50.960;0.314;2022-08-02T12:41:39;10;10;
64627;PMS5003;59036;50.960;0.314;2022-08-02T12:44:13;11;11;
64627;PMS5003;59036;50.960;0.314;2022-08-02T12:46:42;10;10;
64627;PMS5003;59036;50.960;0.314;2022-08-02T12:49:17;9;9;
64627;PMS5003;59036;50.960;0.314;2022-08-02T12:51:44;7;7;
64627;PMS5003;59036;50.960;0.314;2022-08-02T12:54:13;12;10;
64627;PMS5003;59036;50.960;0.314;2022-08-02T12:56:42;10;7;
64627;PMS5003;59036;50.960;0.314;2022-08-02T12:59:09;11;10;
64627;PMS5003;59036;50.960;0.314;2022-08-02T13:01:36;9;9;
64627;PMS5003;59036;50.960;0.314;2022-08-02T13:04:03;8;8;
64627;PMS5003;59036;50.960;0.314;2022-08-02T13:06:31;8;8;
64627;PMS5003;59036;50.960;0.314;2022-08-02T13:08:59;11;11;
64627;PMS5003;59036;50.960;0.314;2022-08-02T13:11:26;8;8;
64627;PMS5003;59036;50.960;0.314;2022-08-02T13:13:54;9;8;
64627;PMS5003;59036;50.960;0.314;2022-08-02T13:16:21;11;10;
64627;PMS5003;59036;50.960;0.314;2022-08-02T13:18:49;11;11;
64627;PMS5003;59036;50.960;0.314;2022-08-02T13:21:15;11;11;
64627;PMS5003;59036;50.960;0.314;2022-08-02T13:23:42;13;13;
64627;PMS5003;59036;50.960;0.314;2022-08-02T13:26:10;12;12;
64627;PMS5003;59036;50.960;0.314;2022-08-02T13:28:36;11;10;
64627;PMS5003;59036;50.960;0.314;2022-08-02T13:31:04;9;8;
64627;PMS5003;59036;50.960;0.314;2022-08-02T13:33:31;10;9;
64627;PMS5003;59036;50.960;0.314;2022-08-02T13:35:59;8;8;
64627;PMS5003;59036;50.960;0.314;2022-08-02T13:38:26;9;9;
64627;PMS5003;59036;50.960;0.314;2022-08-02T13:40:53;7;7;
64627;PMS5003;59036;50.960;0.314;2022-08-02T13:43:20;7;7;
64627;PMS5003;59036;50.960;0.314;2022-08-02T13:45:47;6;5;
64627;PMS5003;59036;50.960;0.314;2022-08-02T13:48:14;4;3;
64627;PMS5003;59036;50.960;0.314;2022-08-02T13:50:41;3;3;
64627;PMS5003;59036;50.960;0.314;2022-08-02T13:53:13;4;3;
64627;PMS5003;59036;50.960;0.314;2022-08-02T13:55:51;6;6;
64627;PMS5003;59036;50.960;0.314;2022-08-02T13:58:18;5;4;
64627;PMS5003;59036;50.960;0.314;2022-08-02T14:00:45;4;4;
64627;PMS5003;59036;50.960;0.314;2022-08-02T14:03:12;4;4;
64627;PMS5003;59036;50.960;0.314;2022-08-02T14:05:40;5;5;
64627;PMS5003;59036;50.960;0.314;2022-08-02T14:08:08;3;3;
64627;PMS5003;59036;50.960;0.314;2022-08-02T14:10:35;4;4;
64627;PMS5003;59036;50.960;0.314;2022-08-02T14:13:02;3;3;
64627;PMS5003;59036;50.960;0.314;2022-08-02T14:15:29;3;3;
64627;PMS5003;59036;50.960;0.314;2022-08-02T14:17:56;5;4;
64627;PMS5003;59036;50.960;0.314;2022-08-02T14:20:23;4;4;
64627;PMS5003;59036;50.960;0.314;2022-08-02T14:22:49;3;3;
64627;PMS5003;59036;50.960;0.314;2022-08-02T14:25:17;3;3;
64627;PMS5003;59036;50.960;0.314;2022-08-02T14:27:45;3;3;
64627;PMS5003;59036;50.960;0.314;2022-08-02T14:30:12;2;2;
64627;PMS5003;59036;50.960;0.314;2022-08-02T14:32:39;3;3;
64627;PMS5003;59036;50.960;0.314;2022-08-02T14:35:06;4;3;
64627;PMS5003;59036;50.960;0.314;2022-08-02T14:37:34;3;3;
64627;PMS5003;59036;50.960;0.314;2022-08-02T14:40:02;3;3;
64627;PMS5003;59036;50.960;0.314;2022-08-02T14:42:38;5;4;
64627;PMS5003;59036;50.960;0.314;2022-08-02T14:45:06;3;3;
64627;PMS5003;59036;50.960;0.314;2022-08-02T14:47:33;4;4;
64627;PMS5003;59036;50.960;0.314;2022-08-02T14:50:01;5;5;
64627;PMS5003;59036;50.960;0.314;2022-08-02T14:52:29;4;4;
64627;PMS5003;59036;50.960;0.314;2022-08-02T14:54:56;4;4;
64627;PMS5003;59036;50.960;0.314;2022-08-02T14:57:23;3;3;
64627;PMS5003;59036;50.960;0.314;2022-08-02T14:59:50;5;5;
64627;PMS5003;59036;50.960;0.314;2022-08-02T15:02:17;6;6;
64627;PMS5003;59036;50.960;0.314;2022-08-02T15:04:45;6;4;
64627;PMS5003;59036;50.960;0.314;2022-08-02T15:07:12;2;2;
64627;PMS5003;59036;50.960;0.314;2022-08-02T15:09:39;4;4;
64627;PMS5003;59036;50.960;0.314;2022-08-02T15:12:07;6;4;
64627;PMS5003;59036;50.960;0.314;2022-08-02T15:14:36;5;5;
64627;PMS5003;59036;50.960;0.314;2022-08-02T15:17:03;5;4;
64627;PMS5003;59036;50.960;0.314;2022-08-02T15:19:31;3;3;
64627;PMS5003;59036;50.960;0.314;2022-08-02T15:21:59;4;4;
64627;PMS5003;59036;50.960;0.314;2022-08-02T15:24:26;4;4;
64627;PMS5003;59036;50.960;0.314;2022-08-02T15:26:53;5;4;
64627;PMS5003;59036;50.960;0.314;2022-08-02T15:29:19;5;4;
64627;PMS5003;59036;50.960;0.314;2022-08-02T15:31:47;3;3;
64627;PMS5003;59036;50.960;0.314;2022-08-02T15:34:14;5;4;
64627;PMS5003;59036;50.960;0.314;2022-08-02T15:36:41;5;4;
64627;PMS5003;59036;50.960;0.314;2022-08-02T15:39:08;5;5;
64627;PMS5003;59036;50.960;0.314;2022-08-02T15:41:36;5;4;
64627;PMS5003;59036;50.960;0.314;2022-08-02T15:44:05;6;6;
64627;PMS5003;59036;50.960;0.314;2022-08-02T15:46:35;4;4;
64627;PMS5003;59036;50.960;0.314;2022-08-02T15:49:03;5;5;
64627;PMS5003;59036;50.960;0.314;2022-08-02T15:51:30;3;3;
64627;PMS5003;59036;50.960;0.314;2022-08-02T15:53:57;5;4;
64627;PMS5003;59036;50.960;0.314;2022-08-02T15:56:24;6;4;
64627;PMS5003;59036;50.960;0.314;2022-08-02T15:58:51;3;3;
64627;PMS5003;59036;50.960;0.314;2022-08-02T16:01:18;5;5;
64627;PMS5003;59036;50.960;0.314;2022-08-02T16:03:45;6;6;
64627;PMS5003;59036;50.960;0.314;2022-08-02T16:06:12;4;4;
64627;PMS5003;59036;50.960;0.314;2022-08-02T16:08:39;6;6;
64627;PMS5003;59036;50.960;0.314;2022-08-02T16:11:06;5;5;
64627;PMS5003;59036;50.960;0.314;2022-08-02T16:13:33;6;6;
64627;PMS5003;59036;50.960;0.314;2022-08-02T16:16:00;6;6;
64627;PMS5003;59036;50.960;0.314;2022-08-02T16:18:27;8;7;
64627;PMS5003;59036;50.960;0.314;2022-08-02T16:20:54;5;5;
64627;PMS5003;59036;50.960;0.314;2022-08-02T16:23:21;5;5;
64627;PMS5003;59036;50.960;0.314;2022-08-02T16:25:48;3;3;
64627;PMS5003;59036;50.960;0.314;2022-08-02T16:28:15;5;5;
64627;PMS5003;59036;50.960;0.314;2022-08-02T16:30:42;5;5;
64627;PMS5003;59036;50.960;0.314;2022-08-02T16:33:08;5;5;
64627;PMS5003;59036;50.960;0.314;2022-08-02T16:35:35;3;3;
64627;PMS5003;59036;50.960;0.314;2022-08-02T16:38:02;6;5;
64627;PMS5003;59036;50.960;0.314;2022-08-02T16:40:34;4;4;
64627;PMS5003;59036;50.960;0.314;2022-08-02T16:43:02;5;5;
64627;PMS5003;59036;50.960;0.314;2022-08-02T16:45:30;6;4;
64627;PMS5003;59036;50.960;0.314;2022-08-02T16:47:56;7;5;
64627;PMS5003;59036;50.960;0.314;2022-08-02T16:50:24;4;4;
64627;PMS5003;59036;50.960;0.314;2022-08-02T16:52:51;3;3;
64627;PMS5003;59036;50.960;0.314;2022-08-02T16:55:19;5;4;
64627;PMS5003;59036;50.960;0.314;2022-08-02T16:57:46;3;3;
64627;PMS5003;59036;50.960;0.314;2022-08-02T17:00:14;4;4;